DNMMDNKA

Guest
Details From DNMM - Lagos Murtala Muhammed
To DNKA - Kaduna
Flight Number -
Tags Generated
Created
Modified
Stats Distance 341 nm / 631 km
Max Altitude 0 ft / 0 m
Waypoints 3
Social Downloads 2
Likes 0
Share VATSIM

Download

Looking for another format? Having issues loading an existing format? Contact us
Advertisement - Login to hide

Notes

Generated

Route

DNMM KDA DNKA

ID Type Via Altitude Latitude Longitude Leg Dist Tot Dist Heading (true) Name
O DNMM APT - 0 ft / 0 m 6.59701˚ 3.32914˚ - 0 nm - -
KDA VOR - 0 ft / 0 m 10.68018˚ 7.30143˚ 340 nm 340 nm 44° / 44° KADUNA VOR
O DNKA APT - 0 ft / 0 m 10.68710˚ 7.30968˚ 0 nm 340 nm 50° / 50° -

Altitude Profile

Advertisement - Login to hide

Weather


0- 5 10 15 20 25 30 35+ Temperature / ° C

Clouds and Precipitation
Forecast for 2017-12-18 12:00 UTC. Updated 16 minutes ago

Ground ~20,000 ft ~40,000 ft Winds

DNMM

Details ICAO DNMM (LOS)
Name Lagos Murtala Muhammed
Region Nigeria
Timezone Africa/Lagos (UTC+1.0)
Stats Elevation 135 ft / 41 m (AMSL)
Location 6.577380° 3.321347°
Runways 2
Magnetic Variation 2.224° W

METAR

DNMM 180700Z VRB02KT 3500 HZ FEW011 28/26 Q1013 TEMPO 5000 HZ

Decode

TAF

TAF DNMM 172130Z 1800/1906 VRB02KT 8000 FEW010 TEMPO 1805/1808 5000 HZ BECMG 1808/1810 25010KT BKN013

Decode

Departure Runways

ID Width Length Bearing (true) Bearing (mag) Surface Threshold Offset Overrun Length
18L 148 ft / 45 m 9,049 ft / 2,758 m 180.00° 182.22° Asphalt 300 ft / 91 m 0 ft / 0 m
18R 197 ft / 60 m 12,867 ft / 3,922 m 180.00° 182.22° Asphalt 600 ft / 183 m 0 ft / 0 m
36L 197 ft / 60 m 12,867 ft / 3,922 m 0.00° 2.22° Asphalt 600 ft / 183 m 0 ft / 0 m
36R 148 ft / 45 m 9,049 ft / 2,758 m 0.00° 2.22° Asphalt 300 ft / 91 m 0 ft / 0 m

DNKA

Details ICAO DNKA (KAD)
Name KADUNA
Region Nigeria
Timezone Africa/Lagos (UTC+1.0)
Stats Elevation 2,073 ft / 632 m (AMSL)
Location 10.695866° 7.320144°
Runways 1
Magnetic Variation 0.534° W

METAR

Not found

TAF

TAF DNKA 180330Z 1806/1912 03004KT 6000 NSC TEMPO 1806/1809 5000 HZ BECMG 1810/1812 17010KT CAVOK

Decode

Destination Runways

ID Width Length Bearing (true) Bearing (mag) Surface Threshold Offset Overrun Length
05 197 ft / 60 m 9,860 ft / 3,005 m 49.54° 50.07° Asphalt 0 ft / 0 m 390 ft / 119 m
23 197 ft / 60 m 9,860 ft / 3,005 m 229.54° 230.07° Asphalt 0 ft / 0 m 390 ft / 119 m

Approach Navaids

Runway Type Ident Frequency Range Bearing (true) Bearing (mag) Slope Elevation
05 Localiser IKA 110.10 MHz 18 nm / 33 km 48.42° 48.95° - 2,073 ft / 632 m (AMSL)
05 Glidescope IKA 110.10 MHz 10 nm / 19 km 49.54° 50.08° 3.08° 2,067 ft / 630 m (AMSL)
05 DME IKA 110.10 MHz 18 nm / 33 km - - - 2,060 ft / 628 m (AMSL)